createdAt,value
2022-12-01T00:03:52.249Z,80.1
2022-12-01T00:09:51.626Z,80.4
2022-12-01T00:15:53.049Z,80.2
2022-12-01T00:21:52.213Z,80.2
2022-12-01T00:27:51.675Z,80
2022-12-01T00:33:51.489Z,80.2
2022-12-01T00:39:51.673Z,80.5
2022-12-01T00:45:52.095Z,80.4
2022-12-01T00:51:52.149Z,80.2
2022-12-01T00:57:52.087Z,80.1
2022-12-01T01:03:51.588Z,80.3
2022-12-01T01:09:51.974Z,80
2022-12-01T01:15:52.552Z,80.2
2022-12-01T01:21:52.310Z,80.1
2022-12-01T01:27:52.259Z,80.4
2022-12-01T01:33:52.696Z,80.3
2022-12-01T01:39:51.557Z,80.5
2022-12-01T01:45:51.577Z,80.4
2022-12-01T01:51:51.275Z,80
2022-12-01T01:57:51.491Z,80.2
2022-12-01T02:03:51.871Z,80.1
2022-12-01T02:09:52.005Z,80.2
2022-12-01T02:15:51.213Z,80.5
2022-12-01T02:21:51.134Z,80.5
2022-12-01T02:27:51.051Z,80.5
2022-12-01T02:33:51.215Z,80.7
2022-12-01T02:39:51.423Z,80.9
2022-12-01T02:45:51.314Z,80.9
2022-12-01T02:51:51.358Z,80.9
2022-12-01T02:57:51.829Z,80.8
2022-12-01T03:03:51.238Z,81
2022-12-01T03:09:51.645Z,81
2022-12-01T03:15:51.303Z,81
2022-12-01T03:21:51.236Z,81.3
2022-12-01T03:28:19.700Z,81.6
2022-12-01T03:33:52.081Z,81.5
2022-12-01T03:39:53.756Z,81.4
2022-12-01T03:45:51.567Z,81.7
2022-12-01T03:51:51.431Z,81.6
2022-12-01T03:57:51.829Z,81.9
2022-12-01T04:03:51.735Z,82.1
2022-12-01T04:09:51.891Z,82.4
2022-12-01T04:15:52.086Z,82.5
2022-12-01T04:21:52.989Z,82.7
2022-12-01T04:27:51.883Z,82.4
2022-12-01T04:33:51.731Z,82.5
2022-12-01T04:39:52.137Z,82
2022-12-01T04:45:51.837Z,82.7
2022-12-01T04:51:52.224Z,82.6
2022-12-01T04:57:51.521Z,82.8
2022-12-01T05:03:51.652Z,82.7
2022-12-01T05:09:52.018Z,82.6
2022-12-01T05:15:51.708Z,82.5
2022-12-01T05:21:52.249Z,82.1
2022-12-01T05:27:51.654Z,82.2
2022-12-01T05:33:52.001Z,82.4
2022-12-01T05:39:52.481Z,82.6
2022-12-01T05:45:51.900Z,82.3
2022-12-01T05:51:51.461Z,82.9
2022-12-01T05:57:52.186Z,82.4
2022-12-01T06:03:51.661Z,82.2
2022-12-01T06:09:51.977Z,81.9
2022-12-01T06:15:51.539Z,81.8
2022-12-01T06:21:51.480Z,81.7
2022-12-01T06:27:51.818Z,81.8
2022-12-01T06:33:51.687Z,81.4
2022-12-01T06:39:52.088Z,81.8
2022-12-01T06:45:56.357Z,81.4
2022-12-01T06:51:52.410Z,81
2022-12-01T06:57:52.510Z,80.8
2022-12-01T07:03:51.989Z,80.5
2022-12-01T07:09:51.893Z,80.3
2022-12-01T07:15:52.274Z,80.2
2022-12-01T07:21:51.759Z,80.3
2022-12-01T07:27:52.444Z,80.3
2022-12-01T07:33:52.637Z,80.7
2022-12-01T07:39:51.890Z,80.7
2022-12-01T07:45:51.724Z,80.9
2022-12-01T07:51:51.799Z,81
2022-12-01T07:57:51.540Z,81.3
2022-12-01T08:03:52.267Z,81
2022-12-01T08:09:51.765Z,81
2022-12-01T08:15:51.893Z,80.8
2022-12-01T08:21:51.510Z,81.1
2022-12-01T08:27:52.467Z,80.9
2022-12-01T08:33:51.388Z,80.9
2022-12-01T08:39:52.164Z,80.2
2022-12-01T08:45:51.432Z,80
2022-12-01T08:51:52.193Z,79.8
2022-12-01T08:57:52.327Z,79.8
2022-12-01T09:03:51.634Z,79.5
2022-12-01T09:09:51.527Z,80
2022-12-01T09:15:51.720Z,79.3
2022-12-01T09:21:51.874Z,79.7
2022-12-01T09:27:52.020Z,79.6
2022-12-01T09:33:53.436Z,79.1
2022-12-01T09:39:51.784Z,78.8
2022-12-01T09:45:51.786Z,79
2022-12-01T09:51:51.485Z,78.8
2022-12-01T09:57:52.019Z,79.4
2022-12-01T10:03:52.075Z,79.6
2022-12-01T10:09:51.837Z,79.5
2022-12-01T10:15:51.969Z,79.2
2022-12-01T10:21:51.217Z,78.9
2022-12-01T10:27:51.246Z,78.9
2022-12-01T10:33:51.290Z,79.4
2022-12-01T10:39:52.451Z,79.2
2022-12-01T10:45:52.405Z,78.8
2022-12-01T10:51:51.449Z,77.7
2022-12-01T10:57:51.468Z,78.2
2022-12-01T11:03:51.532Z,78
2022-12-01T11:09:51.602Z,77.2
2022-12-01T11:15:51.689Z,76.7
2022-12-01T11:21:51.355Z,76.8
2022-12-01T11:27:51.723Z,75.7
2022-12-01T11:33:51.417Z,75.9
2022-12-01T11:39:51.875Z,75.9
2022-12-01T11:45:51.534Z,76.1
2022-12-01T11:51:51.436Z,75.1
2022-12-01T11:57:51.848Z,75.1
2022-12-01T12:03:51.342Z,73.9
2022-12-01T12:09:51.829Z,74.7
2022-12-01T12:15:51.199Z,74.2
2022-12-01T12:21:51.262Z,74.2
2022-12-01T12:27:51.210Z,74.2
2022-12-01T12:33:51.205Z,72.8
2022-12-01T12:39:51.581Z,72.8
2022-12-01T12:45:51.187Z,70.9
2022-12-01T12:51:51.239Z,70.1
2022-12-01T12:57:51.374Z,69.8
2022-12-01T13:03:51.362Z,69.1
2022-12-01T13:09:51.829Z,70.1
2022-12-01T13:15:51.447Z,69.2
2022-12-01T13:21:51.392Z,69.5
2022-12-01T13:27:52.151Z,69.6
2022-12-01T13:33:51.462Z,68.2
2022-12-01T13:39:51.628Z,68.6
2022-12-01T13:45:51.566Z,69.6
2022-12-01T13:51:51.293Z,69
2022-12-01T13:57:51.213Z,69.5
2022-12-01T14:03:51.231Z,69.8
2022-12-01T14:09:51.475Z,69.1
2022-12-01T14:16:04.010Z,69.4
2022-12-01T14:21:52.471Z,68.5
2022-12-01T14:27:53.221Z,68
2022-12-01T14:33:52.415Z,68
2022-12-01T14:39:53.421Z,69
2022-12-01T14:45:55.178Z,68.5
2022-12-01T14:51:53.479Z,70
2022-12-01T14:57:53.663Z,69.8
2022-12-01T15:03:52.867Z,69.8
2022-12-01T15:09:53.269Z,69.8
2022-12-01T15:16:01.484Z,70.3
2022-12-01T15:21:52.918Z,70.3
2022-12-01T15:27:53.919Z,69.6
2022-12-01T15:33:53.510Z,70.5
2022-12-01T15:39:53.259Z,70.1
2022-12-01T15:45:55.321Z,70.3
2022-12-01T15:51:51.532Z,71.5
2022-12-01T15:57:56.345Z,71.4
2022-12-01T16:04:00.734Z,70.5
2022-12-01T16:09:57.147Z,70.9
2022-12-01T16:15:56.579Z,71
2022-12-01T16:21:51.632Z,70.9
2022-12-01T16:27:55.331Z,70.8
2022-12-01T16:34:43.918Z,70.2
2022-12-01T16:40:01.374Z,71.3
2022-12-01T16:45:55.005Z,71.3
2022-12-01T16:52:22.011Z,70.9
2022-12-01T16:57:58.712Z,71
2022-12-01T17:04:06.093Z,70
2022-12-01T17:10:03.701Z,70.5
2022-12-01T17:16:04.812Z,70.4
2022-12-01T17:22:09.745Z,70.3
2022-12-01T17:28:05.544Z,70.2
2022-12-01T17:34:01.301Z,70.7
2022-12-01T17:40:05.620Z,70.5
2022-12-01T17:46:04.497Z,70.3
2022-12-01T17:52:02.017Z,71.6
2022-12-01T17:58:06.299Z,71.8
2022-12-01T18:04:02.967Z,71.8
2022-12-01T18:10:00.689Z,72
2022-12-01T18:16:00.289Z,72.2
2022-12-01T18:22:07.612Z,71.8
2022-12-01T18:28:04.120Z,71.4
2022-12-01T18:34:04.803Z,72.1
2022-12-01T18:40:03.530Z,72.2
2022-12-01T18:46:01.657Z,71.9
2022-12-01T18:52:00.838Z,72.1
2022-12-01T18:58:02.299Z,72
2022-12-01T19:03:56.605Z,71.7
2022-12-01T19:10:00.993Z,71.6
2022-12-01T19:15:57.164Z,72
2022-12-01T19:22:00.859Z,72.2
2022-12-01T19:28:02.064Z,71.2
2022-12-01T19:34:00.340Z,71
2022-12-01T19:39:59.420Z,71.3
2022-12-01T19:45:59.814Z,70.8
2022-12-01T19:52:03.378Z,71.3
2022-12-01T19:57:58.385Z,70.7
2022-12-01T20:03:58.121Z,70.8
2022-12-01T20:10:00.390Z,70.5
2022-12-01T20:16:06.115Z,70.9
2022-12-01T20:22:04.902Z,70.9
2022-12-01T20:27:59.570Z,71
2022-12-01T20:34:06.833Z,70.8
2022-12-01T20:40:05.248Z,70.8
2022-12-01T20:45:56.381Z,71.2
2022-12-01T20:52:01.281Z,71.1
2022-12-01T20:58:02.738Z,71.1
2022-12-01T21:04:02.531Z,70.6
2022-12-01T21:09:59.566Z,71
2022-12-01T21:16:00.061Z,71.2
2022-12-01T21:21:55.051Z,72.1
2022-12-01T21:28:03.860Z,71.8
2022-12-01T21:34:03.184Z,71.7
2022-12-01T21:39:58.095Z,71.6
2022-12-01T21:46:02.262Z,70.7
2022-12-01T21:51:59.011Z,71.3
2022-12-01T21:58:01.603Z,71.6
2022-12-01T22:03:52.451Z,71.1
2022-12-01T22:09:51.722Z,70.5
2022-12-01T22:15:57.419Z,70.5
2022-12-01T22:21:51.323Z,70.4
2022-12-01T22:27:51.817Z,70.4
2022-12-01T22:33:52.234Z,70.4
2022-12-01T22:40:02.966Z,70.4
2022-12-01T22:45:56.388Z,70.9
2022-12-01T22:51:51.779Z,70
2022-12-01T22:57:52.134Z,69.1
2022-12-01T23:04:15.377Z,69.5
2022-12-01T23:10:04.405Z,69.6
2022-12-01T23:16:04.227Z,69
2022-12-01T23:21:57.448Z,69
2022-12-01T23:28:08.508Z,68.3
2022-12-01T23:34:14.778Z,68.6
2022-12-01T23:40:00.365Z,68.3
2022-12-01T23:46:02.377Z,68.1
2022-12-01T23:51:57.571Z,69
2022-12-01T23:58:05.085Z,69
